Campanya meteocatpedra

Dades EMA Vilanova del Vallès

?
?
Resum diari
Dades diàries de l'estació meteorològica
Temperatura mitjana 11.9 °C
Temperatura màxima 17.0 °C 12:57 TU
Temperatura mínima 7.4 °C 4:25 TU
Humitat relativa mitjana 62%
Precipitació acumulada 0.0 mm
Ratxa màxima del vent sense dades sense dades
Irradiació solar global sense dades

El tram horari està expressat en Temps Universal (TU). Cal sumar una hora en horari d'hivern i dues en horari d'estiu per passar a l'hora oficial.

Vilanova del Vallès

Metadades estació meteorol´gica
Municipi Vilanova del Vallès
Comarca Vallès Oriental
Altitud 126 m
Data alta 05.07.2000
Estat actual Operativa
Dades de període
Període
TU
TM
°C
TX
°C
TN
°C
HRM
%
PPT
mm
00:00 - 00:30 13.2 13.3 12.9 82 0.0
00:30 - 01:00 12.7 12.9 12.3 84 0.0
01:00 - 01:30 11.7 12.3 11.1 86 0.0
01:30 - 02:00 10.1 11.0 9.1 88 0.0
02:00 - 02:30 9.0 9.2 8.6 90 0.0
02:30 - 03:00 7.9 8.6 7.5 91 0.0
03:00 - 03:30 7.8 8.1 7.5 92 0.0
03:30 - 04:00 8.2 8.4 8.0 92 0.0
04:00 - 04:30 7.7 8.2 7.4 91 0.0
04:30 - 05:00 8.2 8.8 7.7 92 0.0
05:00 - 05:30 9.3 9.4 8.9 92 0.0
05:30 - 06:00 9.1 9.2 8.9 92 0.0
06:00 - 06:30 9.0 9.1 8.9 90 0.0
06:30 - 07:00 9.2 9.4 9.1 85 0.0
07:00 - 07:30 9.7 10.4 9.4 82 0.0
07:30 - 08:00 11.5 12.4 10.5 70 0.0
08:00 - 08:30 12.3 13.2 11.7 59 0.0
08:30 - 09:00 13.0 13.5 12.7 52 0.0
09:00 - 09:30 13.6 14.1 13.2 49 0.0
09:30 - 10:00 13.3 13.8 12.7 49 0.0
10:00 - 10:30 14.4 15.0 13.7 46 0.0
10:30 - 11:00 14.4 15.4 13.7 42 0.0
11:00 - 11:30 15.5 16.1 14.9 39 0.0
11:30 - 12:00 15.5 15.8 15.2 38 0.0
12:00 - 12:30 15.5 15.7 15.1 38 0.0
12:30 - 13:00 16.2 17.0 15.9 35 0.0
13:00 - 13:30 16.1 16.9 15.1 34 0.0
13:30 - 14:00 15.2 16.1 14.4 34 0.0
14:00 - 14:30 15.5 16.0 14.9 37 0.0
14:30 - 15:00 14.8 15.3 14.1 44 0.0
15:00 - 15:30 13.7 14.0 13.4 46 0.0
15:30 - 16:00 13.6 13.9 13.3 44 0.0
16:00 - 16:30 12.8 13.2 12.5 46 0.0
16:30 - 17:00 12.2 12.5 12.1 47 0.0
17:00 - 17:30 11.9 12.1 11.8 48 0.0
17:30 - 18:00 11.7 11.8 11.6 49 0.0
18:00 - 18:30 11.4 11.6 11.0 51 0.0
18:30 - 19:00 11.0 11.2 10.8 52 0.0
19:00 - 19:30 10.5 11.0 9.6 55 0.0
19:30 - 20:00 9.1 9.5 8.3 64 0.0

Les dades en taronja només han passat un control de qualitat automàtic. Resta pendent la seva validació definitiva.